sensor_id;sensor_type;location;lat;lon;timestamp;pressure;altitude;pressure_sealevel;temperature;humidity
69971;BME280;57301;50.328;8.542;2022-07-23T00:00:13;98498.25;;;19.16;74.87
69971;BME280;57301;50.328;8.542;2022-07-23T00:02:39;98498.63;;;19.06;74.90
69971;BME280;57301;50.328;8.542;2022-07-23T00:05:06;98492.84;;;19.16;74.59
69971;BME280;57301;50.328;8.542;2022-07-23T00:07:33;98493.03;;;19.08;74.49
69971;BME280;57301;50.328;8.542;2022-07-23T00:10:00;98513.41;;;19.24;73.78
69971;BME280;57301;50.328;8.542;2022-07-23T00:12:26;98501.13;;;19.41;73.41
69971;BME280;57301;50.328;8.542;2022-07-23T00:14:53;98499.84;;;19.57;73.29
69971;BME280;57301;50.328;8.542;2022-07-23T00:17:19;98501.28;;;19.73;72.32
69971;BME280;57301;50.328;8.542;2022-07-23T00:19:46;98500.66;;;19.84;72.04
69971;BME280;57301;50.328;8.542;2022-07-23T00:22:13;98491.69;;;19.83;71.88
69971;BME280;57301;50.328;8.542;2022-07-23T00:24:39;98498.78;;;19.84;72.30
69971;BME280;57301;50.328;8.542;2022-07-23T00:27:06;98500.59;;;19.97;72.12
69971;BME280;57301;50.328;8.542;2022-07-23T00:29:33;98496.88;;;19.92;72.08
69971;BME280;57301;50.328;8.542;2022-07-23T00:32:00;98485.19;;;19.98;71.81
69971;BME280;57301;50.328;8.542;2022-07-23T00:34:26;98495.22;;;19.91;72.19
69971;BME280;57301;50.328;8.542;2022-07-23T00:36:53;98487.31;;;19.89;72.25
69971;BME280;57301;50.328;8.542;2022-07-23T00:39:22;98490.28;;;19.68;72.53
69971;BME280;57301;50.328;8.542;2022-07-23T00:41:50;98502.78;;;19.49;73.48
69971;BME280;57301;50.328;8.542;2022-07-23T00:44:20;98505.69;;;19.54;73.42
69971;BME280;57301;50.328;8.542;2022-07-23T00:46:50;98502.53;;;19.57;73.18
69971;BME280;57301;50.328;8.542;2022-07-23T00:49:29;98499.84;;;19.50;73.44
69971;BME280;57301;50.328;8.542;2022-07-23T00:51:57;98493.22;;;19.46;73.65
69971;BME280;57301;50.328;8.542;2022-07-23T00:54:26;98492.16;;;19.47;73.83
69971;BME280;57301;50.328;8.542;2022-07-23T00:56:53;98489.69;;;19.46;73.63
69971;BME280;57301;50.328;8.542;2022-07-23T00:59:20;98491.94;;;19.49;73.71
69971;BME280;57301;50.328;8.542;2022-07-23T01:01:47;98486.56;;;19.42;73.73
69971;BME280;57301;50.328;8.542;2022-07-23T01:04:16;98487.41;;;19.36;73.97
69971;BME280;57301;50.328;8.542;2022-07-23T01:06:44;98480.94;;;19.37;73.77
69971;BME280;57301;50.328;8.542;2022-07-23T01:09:11;98479.50;;;19.28;73.98
69971;BME280;57301;50.328;8.542;2022-07-23T01:11:38;98487.84;;;19.06;75.07
69971;BME280;57301;50.328;8.542;2022-07-23T01:14:12;98485.56;;;19.10;75.06
69971;BME280;57301;50.328;8.542;2022-07-23T01:16:40;98487.84;;;19.00;75.53
69971;BME280;57301;50.328;8.542;2022-07-23T01:19:07;98485.34;;;18.92;75.81
69971;BME280;57301;50.328;8.542;2022-07-23T01:21:41;98475.16;;;19.00;75.36
69971;BME280;57301;50.328;8.542;2022-07-23T01:24:09;98469.13;;;18.85;76.40
69971;BME280;57301;50.328;8.542;2022-07-23T01:26:37;98471.19;;;18.83;76.54
69971;BME280;57301;50.328;8.542;2022-07-23T01:29:04;98474.53;;;18.85;76.34
69971;BME280;57301;50.328;8.542;2022-07-23T01:31:31;98470.16;;;18.84;76.88
69971;BME280;57301;50.328;8.542;2022-07-23T01:33:57;98480.56;;;18.87;76.48
69971;BME280;57301;50.328;8.542;2022-07-23T01:36:25;98482.22;;;18.82;76.72
69971;BME280;57301;50.328;8.542;2022-07-23T01:38:52;98476.69;;;18.35;78.71
69971;BME280;57301;50.328;8.542;2022-07-23T01:41:19;98479.16;;;18.17;79.60
69971;BME280;57301;50.328;8.542;2022-07-23T01:43:45;98466.50;;;18.17;79.60
69971;BME280;57301;50.328;8.542;2022-07-23T01:46:12;98459.50;;;18.63;78.01
69971;BME280;57301;50.328;8.542;2022-07-23T01:48:39;98475.97;;;18.68;77.60
69971;BME280;57301;50.328;8.542;2022-07-23T01:51:05;98478.41;;;18.63;77.81
69971;BME280;57301;50.328;8.542;2022-07-23T01:53:32;98482.44;;;18.80;77.01
69971;BME280;57301;50.328;8.542;2022-07-23T01:55:59;98487.22;;;18.85;76.99
69971;BME280;57301;50.328;8.542;2022-07-23T01:58:26;98477.84;;;18.87;76.61
69971;BME280;57301;50.328;8.542;2022-07-23T02:00:53;98473.72;;;18.85;76.88
69971;BME280;57301;50.328;8.542;2022-07-23T02:03:21;98475.91;;;18.48;78.43
69971;BME280;57301;50.328;8.542;2022-07-23T02:05:48;98476.59;;;18.76;77.66
69971;BME280;57301;50.328;8.542;2022-07-23T02:08:15;98481.81;;;18.91;76.56
69971;BME280;57301;50.328;8.542;2022-07-23T02:10:42;98467.03;;;19.00;76.03
69971;BME280;57301;50.328;8.542;2022-07-23T02:13:08;98452.28;;;18.96;75.97
69971;BME280;57301;50.328;8.542;2022-07-23T02:15:35;98467.88;;;18.94;75.97
69971;BME280;57301;50.328;8.542;2022-07-23T02:18:02;98458.31;;;19.05;75.75
69971;BME280;57301;50.328;8.542;2022-07-23T02:20:31;98468.69;;;19.01;75.62
69971;BME280;57301;50.328;8.542;2022-07-23T02:22:58;98473.06;;;18.76;76.86
69971;BME280;57301;50.328;8.542;2022-07-23T02:25:24;98475.72;;;18.63;77.50
69971;BME280;57301;50.328;8.542;2022-07-23T02:27:51;98485.25;;;18.52;77.87
69971;BME280;57301;50.328;8.542;2022-07-23T02:30:17;98497.59;;;18.68;77.20
69971;BME280;57301;50.328;8.542;2022-07-23T02:32:44;98488.59;;;18.61;77.43
69971;BME280;57301;50.328;8.542;2022-07-23T02:35:12;98486.78;;;18.74;77.08
69971;BME280;57301;50.328;8.542;2022-07-23T02:37:39;98496.56;;;18.89;76.49
69971;BME280;57301;50.328;8.542;2022-07-23T02:40:06;98500.91;;;18.83;76.60
69971;BME280;57301;50.328;8.542;2022-07-23T02:42:32;98512.50;;;18.64;76.96
69971;BME280;57301;50.328;8.542;2022-07-23T02:44:59;98506.47;;;18.62;77.19
69971;BME280;57301;50.328;8.542;2022-07-23T02:47:25;98499.78;;;18.44;77.91
69971;BME280;57301;50.328;8.542;2022-07-23T02:49:53;98501.06;;;18.48;77.76
69971;BME280;57301;50.328;8.542;2022-07-23T02:52:19;98498.59;;;18.60;77.40
69971;BME280;57301;50.328;8.542;2022-07-23T02:54:46;98501.34;;;18.73;77.09
69971;BME280;57301;50.328;8.542;2022-07-23T02:57:12;98517.53;;;18.67;76.94
69971;BME280;57301;50.328;8.542;2022-07-23T02:59:39;98520.13;;;18.47;77.93
69971;BME280;57301;50.328;8.542;2022-07-23T03:02:05;98507.63;;;18.33;78.39
69971;BME280;57301;50.328;8.542;2022-07-23T03:04:32;98519.22;;;18.20;79.04
69971;BME280;57301;50.328;8.542;2022-07-23T03:06:58;98524.94;;;17.62;81.37
69971;BME280;57301;50.328;8.542;2022-07-23T03:09:25;98530.38;;;17.41;82.61
69971;BME280;57301;50.328;8.542;2022-07-23T03:11:51;98532.41;;;17.32;83.26
69971;BME280;57301;50.328;8.542;2022-07-23T03:14:18;98526.91;;;17.19;84.23
69971;BME280;57301;50.328;8.542;2022-07-23T03:16:44;98525.69;;;17.22;83.48
69971;BME280;57301;50.328;8.542;2022-07-23T03:19:11;98522.22;;;17.06;84.86
69971;BME280;57301;50.328;8.542;2022-07-23T03:21:37;98523.28;;;17.33;83.54
69971;BME280;57301;50.328;8.542;2022-07-23T03:24:09;98524.22;;;16.98;85.05
69971;BME280;57301;50.328;8.542;2022-07-23T03:26:36;98526.19;;;17.10;84.81
69971;BME280;57301;50.328;8.542;2022-07-23T03:29:03;98522.75;;;17.44;83.11
69971;BME280;57301;50.328;8.542;2022-07-23T03:31:33;98521.94;;;17.51;82.22
69971;BME280;57301;50.328;8.542;2022-07-23T03:34:00;98524.03;;;17.55;82.27
69971;BME280;57301;50.328;8.542;2022-07-23T03:36:27;98535.06;;;17.60;81.97
69971;BME280;57301;50.328;8.542;2022-07-23T03:38:54;98531.22;;;17.41;83.13
69971;BME280;57301;50.328;8.542;2022-07-23T03:41:21;98547.13;;;17.64;82.07
69971;BME280;57301;50.328;8.542;2022-07-23T03:43:47;98547.06;;;17.86;81.20
69971;BME280;57301;50.328;8.542;2022-07-23T03:46:14;98539.09;;;17.71;81.05
69971;BME280;57301;50.328;8.542;2022-07-23T03:48:41;98547.97;;;17.65;81.40
69971;BME280;57301;50.328;8.542;2022-07-23T03:51:07;98554.34;;;17.57;81.56
69971;BME280;57301;50.328;8.542;2022-07-23T03:53:34;98550.06;;;17.69;81.67
69971;BME280;57301;50.328;8.542;2022-07-23T03:56:00;98548.88;;;17.72;81.19
69971;BME280;57301;50.328;8.542;2022-07-23T03:58:27;98545.13;;;17.73;80.97
69971;BME280;57301;50.328;8.542;2022-07-23T04:00:53;98544.88;;;17.68;80.82
69971;BME280;57301;50.328;8.542;2022-07-23T04:03:20;98544.66;;;17.63;80.81
69971;BME280;57301;50.328;8.542;2022-07-23T04:05:46;98548.31;;;17.55;81.01
69971;BME280;57301;50.328;8.542;2022-07-23T04:08:13;98545.38;;;17.50;81.66
69971;BME280;57301;50.328;8.542;2022-07-23T04:10:39;98540.81;;;17.51;81.69
69971;BME280;57301;50.328;8.542;2022-07-23T04:13:05;98537.84;;;17.39;82.10
69971;BME280;57301;50.328;8.542;2022-07-23T04:15:32;98544.94;;;17.46;81.80
69971;BME280;57301;50.328;8.542;2022-07-23T04:17:58;98547.38;;;17.13;82.82
69971;BME280;57301;50.328;8.542;2022-07-23T04:20:25;98544.34;;;17.23;82.50
69971;BME280;57301;50.328;8.542;2022-07-23T04:22:51;98541.06;;;17.28;81.96
69971;BME280;57301;50.328;8.542;2022-07-23T04:25:18;98542.72;;;17.29;81.85
69971;BME280;57301;50.328;8.542;2022-07-23T04:27:44;98552.47;;;17.30;81.35
69971;BME280;57301;50.328;8.542;2022-07-23T04:30:11;98567.63;;;17.31;81.63
69971;BME280;57301;50.328;8.542;2022-07-23T04:32:37;98559.28;;;17.75;79.69
69971;BME280;57301;50.328;8.542;2022-07-23T04:35:04;98564.97;;;17.87;78.46
69971;BME280;57301;50.328;8.542;2022-07-23T04:37:31;98573.31;;;17.98;78.16
69971;BME280;57301;50.328;8.542;2022-07-23T04:39:57;98573.78;;;18.09;77.27
69971;BME280;57301;50.328;8.542;2022-07-23T04:42:24;98571.56;;;18.19;76.47
69971;BME280;57301;50.328;8.542;2022-07-23T04:44:53;98569.47;;;18.21;75.85
69971;BME280;57301;50.328;8.542;2022-07-23T04:47:20;98569.63;;;18.61;74.99
69971;BME280;57301;50.328;8.542;2022-07-23T04:49:48;98563.88;;;18.77;73.90
69971;BME280;57301;50.328;8.542;2022-07-23T04:52:14;98567.84;;;18.88;72.87
69971;BME280;57301;50.328;8.542;2022-07-23T04:54:41;98570.16;;;18.91;73.04
69971;BME280;57301;50.328;8.542;2022-07-23T04:57:08;98568.06;;;18.93;72.57
69971;BME280;57301;50.328;8.542;2022-07-23T04:59:34;98574.75;;;19.23;71.78
69971;BME280;57301;50.328;8.542;2022-07-23T05:02:01;98573.72;;;19.31;70.80
69971;BME280;57301;50.328;8.542;2022-07-23T05:04:28;98571.22;;;19.36;70.39
69971;BME280;57301;50.328;8.542;2022-07-23T05:06:54;98578.09;;;19.32;70.32
69971;BME280;57301;50.328;8.542;2022-07-23T05:09:21;98579.13;;;19.24;70.17
69971;BME280;57301;50.328;8.542;2022-07-23T05:11:47;98579.13;;;19.18;70.66
69971;BME280;57301;50.328;8.542;2022-07-23T05:14:14;98583.09;;;19.22;70.65
69971;BME280;57301;50.328;8.542;2022-07-23T05:16:40;98582.25;;;19.28;69.22
69971;BME280;57301;50.328;8.542;2022-07-23T05:19:07;98583.91;;;19.49;69.00
69971;BME280;57301;50.328;8.542;2022-07-23T05:21:33;98583.69;;;19.57;68.01
69971;BME280;57301;50.328;8.542;2022-07-23T05:24:00;98587.47;;;19.69;67.32
69971;BME280;57301;50.328;8.542;2022-07-23T05:26:27;98593.66;;;20.09;66.14
69971;BME280;57301;50.328;8.542;2022-07-23T05:28:53;98591.69;;;20.30;64.77
69971;BME280;57301;50.328;8.542;2022-07-23T05:31:19;98586.78;;;21.60;59.92
69971;BME280;57301;50.328;8.542;2022-07-23T05:33:46;98594.19;;;22.51;57.83
69971;BME280;57301;50.328;8.542;2022-07-23T05:36:13;98591.88;;;23.45;54.07
69971;BME280;57301;50.328;8.542;2022-07-23T05:38:39;98586.44;;;24.15;51.44
69971;BME280;57301;50.328;8.542;2022-07-23T05:41:06;98596.88;;;24.06;50.42
69971;BME280;57301;50.328;8.542;2022-07-23T05:43:32;98597.84;;;23.89;50.90
69971;BME280;57301;50.328;8.542;2022-07-23T05:45:59;98587.84;;;24.18;49.71
69971;BME280;57301;50.328;8.542;2022-07-23T05:48:25;98583.94;;;24.77;47.60
69971;BME280;57301;50.328;8.542;2022-07-23T05:50:52;98582.66;;;25.25;47.09
69971;BME280;57301;50.328;8.542;2022-07-23T05:53:19;98576.66;;;25.90;44.85
69971;BME280;57301;50.328;8.542;2022-07-23T05:55:45;98583.38;;;26.21;44.36
69971;BME280;57301;50.328;8.542;2022-07-23T05:58:12;98591.09;;;26.68;43.03
69971;BME280;57301;50.328;8.542;2022-07-23T06:00:38;98583.19;;;26.72;42.21
69971;BME280;57301;50.328;8.542;2022-07-23T06:03:05;98593.84;;;26.30;43.25
69971;BME280;57301;50.328;8.542;2022-07-23T06:05:32;98595.38;;;26.59;43.07
69971;BME280;57301;50.328;8.542;2022-07-23T06:07:58;98588.56;;;27.11;41.37
69971;BME280;57301;50.328;8.542;2022-07-23T06:10:25;98601.06;;;26.58;41.01
69971;BME280;57301;50.328;8.542;2022-07-23T06:12:51;98609.41;;;26.68;41.62
69971;BME280;57301;50.328;8.542;2022-07-23T06:15:21;98618.03;;;27.03;40.21
69971;BME280;57301;50.328;8.542;2022-07-23T06:17:47;98610.13;;;27.98;39.23
69971;BME280;57301;50.328;8.542;2022-07-23T06:20:14;98600.13;;;26.47;40.93
69971;BME280;57301;50.328;8.542;2022-07-23T06:22:41;98603.91;;;27.44;39.40
69971;BME280;57301;50.328;8.542;2022-07-23T06:25:07;98606.41;;;27.13;40.78
69971;BME280;57301;50.328;8.542;2022-07-23T06:27:46;98608.84;;;26.66;41.81
69971;BME280;57301;50.328;8.542;2022-07-23T06:30:13;98608.84;;;26.66;42.02
69971;BME280;57301;50.328;8.542;2022-07-23T06:32:44;98615.66;;;28.46;37.84
69971;BME280;57301;50.328;8.542;2022-07-23T06:35:11;98622.84;;;29.45;36.70
69971;BME280;57301;50.328;8.542;2022-07-23T06:37:37;98632.19;;;30.00;34.70
69971;BME280;57301;50.328;8.542;2022-07-23T06:40:04;98632.75;;;30.33;33.55
69971;BME280;57301;50.328;8.542;2022-07-23T06:42:31;98630.53;;;30.24;34.14
69971;BME280;57301;50.328;8.542;2022-07-23T06:44:58;98625.09;;;30.14;34.71
69971;BME280;57301;50.328;8.542;2022-07-23T06:47:24;98625.88;;;30.25;34.62
69971;BME280;57301;50.328;8.542;2022-07-23T06:49:51;98633.53;;;28.48;36.59
69971;BME280;57301;50.328;8.542;2022-07-23T06:52:17;98627.53;;;26.74;40.26
69971;BME280;57301;50.328;8.542;2022-07-23T06:54:44;98627.28;;;26.75;40.56
69971;BME280;57301;50.328;8.542;2022-07-23T06:57:11;98618.03;;;27.25;40.49
69971;BME280;57301;50.328;8.542;2022-07-23T06:59:37;98617.34;;;28.09;38.23
69971;BME280;57301;50.328;8.542;2022-07-23T07:02:07;98623.31;;;29.06;36.90
69971;BME280;57301;50.328;8.542;2022-07-23T07:04:34;98621.75;;;29.51;36.29
69971;BME280;57301;50.328;8.542;2022-07-23T07:07:01;98622.00;;;29.24;36.70
69971;BME280;57301;50.328;8.542;2022-07-23T07:09:27;98624.75;;;29.29;36.82
69971;BME280;57301;50.328;8.542;2022-07-23T07:11:54;98627.16;;;29.00;37.37
69971;BME280;57301;50.328;8.542;2022-07-23T07:14:21;98628.63;;;28.65;37.85
69971;BME280;57301;50.328;8.542;2022-07-23T07:16:47;98629.72;;;28.17;38.34
69971;BME280;57301;50.328;8.542;2022-07-23T07:19:14;98640.34;;;28.03;38.81
69971;BME280;57301;50.328;8.542;2022-07-23T07:21:40;98643.03;;;27.66;40.15
69971;BME280;57301;50.328;8.542;2022-07-23T07:24:07;98644.88;;;27.28;41.17
69971;BME280;57301;50.328;8.542;2022-07-23T07:26:33;98657.28;;;27.09;40.55
69971;BME280;57301;50.328;8.542;2022-07-23T07:29:00;98654.06;;;26.95;41.00
69971;BME280;57301;50.328;8.542;2022-07-23T07:31:27;98663.31;;;26.67;41.07
69971;BME280;57301;50.328;8.542;2022-07-23T07:33:54;98663.88;;;26.47;42.06
69971;BME280;57301;50.328;8.542;2022-07-23T07:36:23;98661.47;;;26.73;41.77
69971;BME280;57301;50.328;8.542;2022-07-23T07:38:50;98668.81;;;26.94;42.01
69971;BME280;57301;50.328;8.542;2022-07-23T07:41:16;98666.78;;;27.28;41.09
69971;BME280;57301;50.328;8.542;2022-07-23T07:43:43;98667.78;;;27.44;38.82
69971;BME280;57301;50.328;8.542;2022-07-23T07:46:09;98671.13;;;27.51;39.91
69971;BME280;57301;50.328;8.542;2022-07-23T07:48:37;98674.06;;;27.72;39.58
69971;BME280;57301;50.328;8.542;2022-07-23T07:51:05;98671.75;;;28.70;36.95
69971;BME280;57301;50.328;8.542;2022-07-23T07:53:31;98679.69;;;29.39;36.59
69971;BME280;57301;50.328;8.542;2022-07-23T07:55:58;98677.88;;;30.16;34.86
69971;BME280;57301;50.328;8.542;2022-07-23T07:58:25;98680.75;;;30.91;32.92
69971;BME280;57301;50.328;8.542;2022-07-23T08:00:51;98681.19;;;31.19;32.92
69971;BME280;57301;50.328;8.542;2022-07-23T08:03:18;98683.63;;;31.31;32.15
69971;BME280;57301;50.328;8.542;2022-07-23T08:05:45;98683.16;;;31.08;32.25
69971;BME280;57301;50.328;8.542;2022-07-23T08:08:11;98688.03;;;31.21;33.01
69971;BME280;57301;50.328;8.542;2022-07-23T08:10:41;98686.38;;;31.20;32.46
69971;BME280;57301;50.328;8.542;2022-07-23T08:13:15;98691.94;;;31.15;32.77
69971;BME280;57301;50.328;8.542;2022-07-23T08:15:42;98689.69;;;31.22;32.08
69971;BME280;57301;50.328;8.542;2022-07-23T08:18:11;98692.63;;;31.41;31.36
69971;BME280;57301;50.328;8.542;2022-07-23T08:20:38;98695.28;;;31.62;31.49
69971;BME280;57301;50.328;8.542;2022-07-23T08:23:06;98700.66;;;31.77;31.03
69971;BME280;57301;50.328;8.542;2022-07-23T08:25:38;98694.00;;;30.84;31.90
69971;BME280;57301;50.328;8.542;2022-07-23T08:28:07;98697.63;;;30.59;33.76
69971;BME280;57301;50.328;8.542;2022-07-23T08:30:35;98699.25;;;30.60;33.77
69971;BME280;57301;50.328;8.542;2022-07-23T08:33:05;98701.81;;;31.26;30.74
69971;BME280;57301;50.328;8.542;2022-07-23T08:35:36;98705.69;;;31.20;31.08
69971;BME280;57301;50.328;8.542;2022-07-23T08:38:05;98703.84;;;31.55;31.43
69971;BME280;57301;50.328;8.542;2022-07-23T08:40:36;98708.63;;;31.44;31.46
69971;BME280;57301;50.328;8.542;2022-07-23T08:43:11;98702.75;;;31.56;31.37
69971;BME280;57301;50.328;8.542;2022-07-23T08:45:43;98702.53;;;31.47;31.43
69971;BME280;57301;50.328;8.542;2022-07-23T08:48:15;98706.56;;;31.06;31.99
69971;BME280;57301;50.328;8.542;2022-07-23T08:50:48;98699.22;;;30.86;31.96
69971;BME280;57301;50.328;8.542;2022-07-23T08:53:17;98700.34;;;30.74;31.59
69971;BME280;57301;50.328;8.542;2022-07-23T08:55:52;98703.59;;;30.92;31.61
69971;BME280;57301;50.328;8.542;2022-07-23T08:58:19;98706.22;;;31.22;30.80
69971;BME280;57301;50.328;8.542;2022-07-23T09:00:53;98706.22;;;31.17;30.81
69971;BME280;57301;50.328;8.542;2022-07-23T09:03:26;98701.00;;;31.26;31.27
69971;BME280;57301;50.328;8.542;2022-07-23T09:05:54;98709.06;;;31.07;31.89
69971;BME280;57301;50.328;8.542;2022-07-23T09:08:44;98708.59;;;30.74;30.93
69971;BME280;57301;50.328;8.542;2022-07-23T09:11:15;98698.69;;;30.73;31.78
69971;BME280;57301;50.328;8.542;2022-07-23T09:13:50;98695.97;;;30.68;31.19
69971;BME280;57301;50.328;8.542;2022-07-23T09:16:27;98701.97;;;30.86;31.00
69971;BME280;57301;50.328;8.542;2022-07-23T09:18:56;98699.53;;;30.69;30.26
69971;BME280;57301;50.328;8.542;2022-07-23T09:21:31;98700.38;;;30.54;30.29
69971;BME280;57301;50.328;8.542;2022-07-23T09:24:03;98702.94;;;30.15;31.94
69971;BME280;57301;50.328;8.542;2022-07-23T09:26:32;98707.00;;;30.07;30.99
69971;BME280;57301;50.328;8.542;2022-07-23T09:29:05;98705.34;;;30.01;30.61
69971;BME280;57301;50.328;8.542;2022-07-23T09:34:22;98693.28;;;30.33;30.56
69971;BME280;57301;50.328;8.542;2022-07-23T09:36:52;98698.22;;;30.36;30.08
69971;BME280;57301;50.328;8.542;2022-07-23T09:39:26;98702.56;;;30.72;29.08
69971;BME280;57301;50.328;8.542;2022-07-23T09:41:52;98700.91;;;30.66;28.77
69971;BME280;57301;50.328;8.542;2022-07-23T09:44:21;98697.56;;;30.80;29.59
69971;BME280;57301;50.328;8.542;2022-07-23T09:46:58;98700.53;;;30.98;29.30
69971;BME280;57301;50.328;8.542;2022-07-23T09:49:24;98699.00;;;31.37;28.55
69971;BME280;57301;50.328;8.542;2022-07-23T09:51:56;98695.88;;;31.53;29.89
69971;BME280;57301;50.328;8.542;2022-07-23T09:54:28;98687.47;;;31.29;28.09
69971;BME280;57301;50.328;8.542;2022-07-23T09:56:59;98692.63;;;31.41;28.48
69971;BME280;57301;50.328;8.542;2022-07-23T09:59:29;98694.50;;;31.51;27.81
69971;BME280;57301;50.328;8.542;2022-07-23T10:01:57;98690.75;;;31.81;26.96
69971;BME280;57301;50.328;8.542;2022-07-23T10:04:28;98689.56;;;32.21;26.63
69971;BME280;57301;50.328;8.542;2022-07-23T10:07:00;98689.81;;;32.25;25.80
69971;BME280;57301;50.328;8.542;2022-07-23T10:09:31;98698.91;;;32.25;27.53
69971;BME280;57301;50.328;8.542;2022-07-23T10:12:00;98692.28;;;32.26;27.82
69971;BME280;57301;50.328;8.542;2022-07-23T10:14:38;98693.63;;;32.00;26.67
69971;BME280;57301;50.328;8.542;2022-07-23T10:17:04;98690.94;;;31.90;27.50
69971;BME280;57301;50.328;8.542;2022-07-23T10:19:32;98692.94;;;31.79;28.63
69971;BME280;57301;50.328;8.542;2022-07-23T10:22:10;98696.31;;;31.21;28.73
69971;BME280;57301;50.328;8.542;2022-07-23T10:41:39;98692.00;;;33.05;27.40
69971;BME280;57301;50.328;8.542;2022-07-23T10:44:16;98687.16;;;33.39;27.00
69971;BME280;57301;50.328;8.542;2022-07-23T10:46:57;98681.97;;;32.90;27.62
69971;BME280;57301;50.328;8.542;2022-07-23T10:49:31;98673.50;;;33.24;28.67
69971;BME280;57301;50.328;8.542;2022-07-23T10:54:44;98676.94;;;32.44;28.37
69971;BME280;57301;50.328;8.542;2022-07-23T10:57:12;98675.28;;;33.58;27.46
69971;BME280;57301;50.328;8.542;2022-07-23T11:02:42;98675.22;;;33.20;28.23
69971;BME280;57301;50.328;8.542;2022-07-23T11:05:20;98673.84;;;32.99;29.41
69971;BME280;57301;50.328;8.542;2022-07-23T11:16:23;98664.97;;;32.54;27.76
69971;BME280;57301;50.328;8.542;2022-07-23T11:18:58;98666.91;;;33.20;29.14
69971;BME280;57301;50.328;8.542;2022-07-23T11:24:07;98672.00;;;32.65;29.63
69971;BME280;57301;50.328;8.542;2022-07-23T11:32:22;98673.88;;;30.89;31.28
69971;BME280;57301;50.328;8.542;2022-07-23T11:34:50;98673.28;;;30.97;32.40
69971;BME280;57301;50.328;8.542;2022-07-23T11:37:36;98669.03;;;31.25;31.63
69971;BME280;57301;50.328;8.542;2022-07-23T11:40:09;98666.00;;;30.52;32.91
69971;BME280;57301;50.328;8.542;2022-07-23T11:42:53;98659.72;;;29.85;34.49
69971;BME280;57301;50.328;8.542;2022-07-23T11:45:20;98665.66;;;30.68;33.99
69971;BME280;57301;50.328;8.542;2022-07-23T11:47:47;98670.06;;;31.34;32.22
69971;BME280;57301;50.328;8.542;2022-07-23T11:50:14;98669.94;;;31.54;31.93
69971;BME280;57301;50.328;8.542;2022-07-23T11:52:40;98666.94;;;31.90;30.96
69971;BME280;57301;50.328;8.542;2022-07-23T11:55:09;98658.94;;;32.23;30.84
69971;BME280;57301;50.328;8.542;2022-07-23T11:57:38;98659.53;;;31.86;31.62
69971;BME280;57301;50.328;8.542;2022-07-23T12:00:17;98665.72;;;31.18;31.81
69971;BME280;57301;50.328;8.542;2022-07-23T12:02:53;98659.50;;;30.97;32.62
69971;BME280;57301;50.328;8.542;2022-07-23T12:05:26;98661.72;;;30.95;32.55
69971;BME280;57301;50.328;8.542;2022-07-23T12:07:54;98665.69;;;30.63;33.48
69971;BME280;57301;50.328;8.542;2022-07-23T12:10:27;98658.03;;;30.35;33.43
69971;BME280;57301;50.328;8.542;2022-07-23T12:12:56;98657.53;;;30.17;34.63
69971;BME280;57301;50.328;8.542;2022-07-23T12:15:29;98656.94;;;29.95;33.58
69971;BME280;57301;50.328;8.542;2022-07-23T12:17:59;98652.84;;;29.97;35.17
69971;BME280;57301;50.328;8.542;2022-07-23T12:20:29;98652.53;;;30.40;33.61
69971;BME280;57301;50.328;8.542;2022-07-23T12:23:01;98654.34;;;30.75;32.74
69971;BME280;57301;50.328;8.542;2022-07-23T12:25:30;98649.94;;;31.73;31.05
69971;BME280;57301;50.328;8.542;2022-07-23T12:28:10;98645.09;;;31.15;31.51
69971;BME280;57301;50.328;8.542;2022-07-23T12:30:42;98651.94;;;32.35;30.17
69971;BME280;57301;50.328;8.542;2022-07-23T12:33:11;98638.44;;;32.77;30.70
69971;BME280;57301;50.328;8.542;2022-07-23T12:35:43;98646.72;;;29.39;32.74
69971;BME280;57301;50.328;8.542;2022-07-23T12:38:13;98647.22;;;31.34;32.04
69971;BME280;57301;50.328;8.542;2022-07-23T12:43:09;98649.44;;;33.06;29.13
69971;BME280;57301;50.328;8.542;2022-07-23T12:45:44;98645.88;;;33.24;28.71
69971;BME280;57301;50.328;8.542;2022-07-23T12:48:26;98643.34;;;32.61;30.06
69971;BME280;57301;50.328;8.542;2022-07-23T12:51:00;98656.66;;;32.01;31.23
69971;BME280;57301;50.328;8.542;2022-07-23T12:53:32;98658.50;;;30.72;32.94
69971;BME280;57301;50.328;8.542;2022-07-23T12:56:04;98658.09;;;31.54;30.96
69971;BME280;57301;50.328;8.542;2022-07-23T12:58:56;98661.50;;;31.41;29.55
69971;BME280;57301;50.328;8.542;2022-07-23T13:01:28;98645.94;;;30.31;31.34
69971;BME280;57301;50.328;8.542;2022-07-23T13:04:11;98648.66;;;30.51;32.23
69971;BME280;57301;50.328;8.542;2022-07-23T13:06:45;98649.16;;;31.28;30.77
69971;BME280;57301;50.328;8.542;2022-07-23T13:09:23;98662.63;;;30.75;31.15
69971;BME280;57301;50.328;8.542;2022-07-23T13:11:51;98650.91;;;30.23;32.78
69971;BME280;57301;50.328;8.542;2022-07-23T13:14:19;98660.72;;;30.70;33.80
69971;BME280;57301;50.328;8.542;2022-07-23T13:16:48;98662.47;;;31.55;30.29
69971;BME280;57301;50.328;8.542;2022-07-23T13:19:17;98656.78;;;32.15;29.30
69971;BME280;57301;50.328;8.542;2022-07-23T13:21:45;98659.44;;;31.62;30.34
69971;BME280;57301;50.328;8.542;2022-07-23T13:24:12;98659.69;;;31.16;30.81
69971;BME280;57301;50.328;8.542;2022-07-23T13:26:39;98653.94;;;32.25;29.07
69971;BME280;57301;50.328;8.542;2022-07-23T13:29:06;98656.41;;;32.55;28.84
69971;BME280;57301;50.328;8.542;2022-07-23T13:31:36;98658.72;;;34.37;27.14
69971;BME280;57301;50.328;8.542;2022-07-23T13:34:04;98660.03;;;34.99;25.80
69971;BME280;57301;50.328;8.542;2022-07-23T13:36:31;98661.91;;;35.26;25.79
69971;BME280;57301;50.328;8.542;2022-07-23T13:38:57;98648.69;;;32.52;28.20
69971;BME280;57301;50.328;8.542;2022-07-23T13:41:25;98650.38;;;34.69;26.41
69971;BME280;57301;50.328;8.542;2022-07-23T13:43:52;98656.56;;;35.30;25.32
69971;BME280;57301;50.328;8.542;2022-07-23T13:46:18;98644.75;;;36.59;23.59
69971;BME280;57301;50.328;8.542;2022-07-23T13:48:46;98648.06;;;37.61;22.32
69971;BME280;57301;50.328;8.542;2022-07-23T13:51:13;98653.06;;;35.97;22.92